Time;durP1;ratioP1;P1;durP2;ratioP2;P2;SDS_P1;SDS_P2;PMS_P1;PMS_P2;Temp;Humidity;BMP_temperature;BMP_pressure;BME280_temperature;BME280_humidity;BME280_pressure;Samples;Min_cycle;Max_cycle;Signal;HPM_P1;HPM_P2
2021/11/15 00:01:16;;;;;;;28.08;16.75;;;5.80;99.90;;;;;;4991684;28;20042;-72
2021/11/15 00:03:48;;;;;;;26.05;14.65;;;5.80;99.90;;;;;;4992699;28;20412;-72
2021/11/15 00:06:15;;;;;;;27.52;14.05;;;5.70;99.90;;;;;;4991419;28;20039;-72
2021/11/15 00:08:46;;;;;;;29.73;15.98;;;5.70;99.90;;;;;;4991399;28;20137;-72
2021/11/15 00:11:19;;;;;;;27.98;16.25;;;5.80;99.90;;;;;;4991811;28;20042;-72
2021/11/15 00:13:46;;;;;;;28.92;14.85;;;5.70;99.90;;;;;;4991356;28;20065;-71
2021/11/15 00:16:18;;;;;;;27.33;15.38;;;5.70;99.90;;;;;;4991989;28;20345;-73
2021/11/15 00:18:50;;;;;;;26.90;15.65;;;5.70;99.90;;;;;;4991213;28;20038;-72
2021/11/15 00:21:22;;;;;;;28.92;16.73;;;5.70;99.90;;;;;;4990894;28;20125;-73
2021/11/15 00:23:53;;;;;;;27.40;15.48;;;5.70;99.90;;;;;;4990700;28;20038;-72
2021/11/15 00:26:21;;;;;;;26.40;14.80;;;5.70;99.90;;;;;;4991510;28;20142;-72
2021/11/15 00:28:48;;;;;;;29.02;15.13;;;5.70;99.90;;;;;;4991514;28;20506;-73
2021/11/15 00:31:14;;;;;;;24.98;14.40;;;5.70;99.90;;;;;;4991470;28;20050;-72
2021/11/15 00:33:46;;;;;;;26.00;13.50;;;5.70;99.90;;;;;;4990957;28;20050;-72
2021/11/15 00:36:13;;;;;;;22.88;13.75;;;5.70;99.90;;;;;;4991301;28;20133;-73
2021/11/15 00:38:40;;;;;;;26.70;15.02;;;5.70;99.90;;;;;;4992463;28;20129;-72
2021/11/15 00:41:07;;;;;;;27.13;14.15;;;5.80;99.90;;;;;;4990908;28;20082;-72
2021/11/15 00:43:34;;;;;;;29.00;16.17;;;5.70;99.90;;;;;;4992109;28;20129;-73
2021/11/15 00:46:06;;;;;;;28.25;16.15;;;5.70;99.90;;;;;;4975688;28;20060;-72
2021/11/15 00:48:38;;;;;;;30.95;17.17;;;5.80;99.90;;;;;;4975865;28;20515;-72
2021/11/15 00:51:09;;;;;;;27.70;15.77;;;5.80;99.90;;;;;;4990976;28;20127;-73
2021/11/15 00:53:41;;;;;;;29.77;17.65;;;5.80;99.90;;;;;;4975458;28;20600;-72
2021/11/15 00:56:13;;;;;;;27.00;16.08;;;5.80;99.90;;;;;;4991726;28;20046;-72
2021/11/15 00:58:45;;;;;;;28.77;15.63;;;5.70;99.90;;;;;;4975543;28;20057;-71
2021/11/15 01:01:17;;;;;;;24.08;14.48;;;5.80;99.90;;;;;;4992301;28;20053;-73
2021/11/15 01:03:49;;;;;;;30.45;15.65;;;5.70;99.90;;;;;;4990780;28;20129;-72
2021/11/15 01:06:21;;;;;;;31.55;17.52;;;5.70;99.90;;;;;;4990362;28;20042;-73
2021/11/15 01:08:53;;;;;;;26.02;16.88;;;5.70;99.90;;;;;;4992136;28;20125;-72
2021/11/15 01:11:25;;;;;;;26.92;16.45;;;5.60;99.90;;;;;;4992151;28;20556;-72
2021/11/15 01:13:52;;;;;;;28.75;16.67;;;5.70;99.90;;;;;;4990075;28;20145;-73
2021/11/15 01:16:24;;;;;;;25.85;14.98;;;5.80;99.90;;;;;;4992093;28;20122;-72
2021/11/15 01:18:51;;;;;;;31.50;16.20;;;5.80;99.90;;;;;;4992111;28;20137;-72
2021/11/15 01:21:28;;;;;;;24.63;14.88;;;5.80;99.90;;;;;;4990725;28;20050;-73
2021/11/15 01:24:00;;;;;;;30.20;15.13;;;5.80;99.90;;;;;;4991177;28;20047;-73
2021/11/15 01:26:31;;;;;;;28.65;15.40;;;5.80;99.90;;;;;;4975192;28;20034;-72
2021/11/15 01:29:04;;;;;;;29.25;15.00;;;5.70;99.90;;;;;;4990384;28;20062;-72
2021/11/15 01:31:36;;;;;;;24.70;13.68;;;5.60;99.90;;;;;;4990905;28;20039;-73
2021/11/15 01:34:08;;;;;;;28.45;14.18;;;5.60;99.90;;;;;;4995479;28;20137;-73
2021/11/15 01:36:39;;;;;;;28.50;14.23;;;5.50;99.90;;;;;;4994636;28;20038;-73
2021/11/15 01:39:11;;;;;;;27.42;15.15;;;5.50;99.90;;;;;;4994685;28;20046;-73
2021/11/15 01:41:38;;;;;;;27.02;13.68;;;5.50;99.90;;;;;;4994387;28;20165;-72
2021/11/15 01:44:05;;;;;;;25.55;13.85;;;5.40;99.90;;;;;;4994048;28;20058;-72
2021/11/15 01:46:37;;;;;;;26.95;15.98;;;5.40;99.90;;;;;;4991019;28;20056;-72
2021/11/15 01:49:09;;;;;;;25.95;13.82;;;5.40;99.90;;;;;;4995900;28;20129;-73
2021/11/15 01:51:41;;;;;;;24.77;15.00;;;5.40;99.90;;;;;;4978760;28;20128;-72
2021/11/15 01:54:13;;;;;;;24.45;13.40;;;5.40;99.90;;;;;;4995165;28;20053;-72
2021/11/15 01:56:39;;;;;;;22.73;13.27;;;5.40;99.90;;;;;;4993900;28;20081;-72
2021/11/15 01:59:07;;;;;;;27.20;14.95;;;5.40;99.90;;;;;;4994031;28;20469;-72
2021/11/15 02:01:34;;;;;;;24.75;14.77;;;5.40;99.90;;;;;;4993540;28;20129;-72
2021/11/15 02:04:06;;;;;;;29.45;15.70;;;5.30;99.90;;;;;;4993332;28;20436;-72
2021/11/15 02:06:33;;;;;;;23.95;14.27;;;5.30;99.90;;;;;;4993465;28;20085;-71
2021/11/15 02:08:59;;;;;;;29.40;14.52;;;5.30;99.90;;;;;;4993374;28;20467;-72
2021/11/15 02:11:33;;;;;;;26.13;14.15;;;5.30;99.90;;;;;;4993554;28;20137;-73
2021/11/15 02:14:02;;;;;;;23.20;13.93;;;5.40;99.90;;;;;;4992649;28;20585;-72
2021/11/15 02:16:34;;;;;;;29.38;17.00;;;5.40;99.90;;;;;;4994551;28;20046;-72
2021/11/15 02:19:06;;;;;;;28.58;15.50;;;5.40;99.90;;;;;;4973763;28;20051;-72
2021/11/15 02:21:38;;;;;;;29.52;16.17;;;5.40;99.90;;;;;;4974955;28;20038;-71
2021/11/15 02:24:09;;;;;;;24.95;14.73;;;5.40;99.90;;;;;;4975147;28;20383;-71
2021/11/15 02:26:37;;;;;;;28.45;14.23;;;5.40;99.90;;;;;;4974395;28;20521;-73
2021/11/15 02:29:08;;;;;;;25.98;14.27;;;5.40;99.90;;;;;;4975445;28;20035;-71
2021/11/15 02:31:40;;;;;;;26.05;14.00;;;5.40;99.90;;;;;;4987863;28;20046;-71
2021/11/15 02:34:12;;;;;;;27.67;15.52;;;5.40;99.90;;;;;;4994215;28;20046;-71
2021/11/15 02:36:39;;;;;;;28.35;14.73;;;5.40;99.90;;;;;;4994273;28;20074;-72
2021/11/15 02:39:11;;;;;;;26.60;15.15;;;5.40;99.90;;;;;;4993013;28;20053;-71
2021/11/15 02:41:42;;;;;;;24.90;14.02;;;5.40;99.90;;;;;;4994182;28;20041;-72
2021/11/15 02:44:14;;;;;;;29.50;14.23;;;5.40;99.90;;;;;;4991599;28;20044;-72
2021/11/15 02:46:46;;;;;;;27.08;14.90;;;5.40;99.90;;;;;;4993590;28;20049;-72
2021/11/15 02:49:18;;;;;;;28.83;15.10;;;5.40;99.90;;;;;;4992912;28;20038;-72
2021/11/15 02:51:50;;;;;;;24.77;13.50;;;5.50;99.90;;;;;;4977776;28;20058;-73
2021/11/15 02:54:24;;;;;;;28.70;14.50;;;5.50;99.90;;;;;;4994125;28;20046;-71
2021/11/15 02:56:52;;;;;;;28.17;15.30;;;5.50;99.90;;;;;;4993190;28;20088;-72
2021/11/15 02:59:23;;;;;;;25.42;14.32;;;5.50;99.90;;;;;;4994210;28;20047;-71
2021/11/15 03:01:50;;;;;;;25.58;14.70;;;5.40;99.90;;;;;;4993988;28;20130;-71
2021/11/15 03:04:22;;;;;;;29.10;15.02;;;5.40;99.90;;;;;;4992730;28;20046;-71
2021/11/15 03:06:48;;;;;;;23.25;14.18;;;5.30;99.90;;;;;;4992680;28;20141;-72
2021/11/15 03:09:15;;;;;;;28.67;15.02;;;5.30;99.90;;;;;;4994144;28;20101;-72
2021/11/15 03:11:47;;;;;;;28.25;14.80;;;5.30;99.90;;;;;;4992996;28;20049;-71
2021/11/15 03:14:19;;;;;;;28.67;14.93;;;5.30;99.90;;;;;;4993739;28;20133;-71
2021/11/15 03:16:51;;;;;;;32.70;15.70;;;5.30;99.90;;;;;;4992777;28;20137;-71
2021/11/15 03:19:23;;;;;;;25.52;15.85;;;5.30;99.90;;;;;;4992810;28;20038;-71
2021/11/15 03:21:55;;;;;;;26.08;15.60;;;5.30;99.90;;;;;;4992412;28;20446;-71
2021/11/15 03:24:27;;;;;;;26.45;14.20;;;5.20;99.90;;;;;;4992312;28;20523;-72
2021/11/15 03:26:59;;;;;;;28.20;15.43;;;5.30;99.90;;;;;;4993821;28;20038;-72
2021/11/15 03:29:26;;;;;;;27.33;14.93;;;5.20;99.90;;;;;;4992623;28;20038;-71
2021/11/15 03:31:57;;;;;;;26.02;13.90;;;5.20;99.90;;;;;;4992174;28;20037;-72
2021/11/15 03:34:30;;;;;;;29.10;15.15;;;5.20;99.90;;;;;;4992237;28;20145;-71
2021/11/15 03:36:56;;;;;;;23.63;13.13;;;5.20;99.90;;;;;;4992281;28;20145;-72
2021/11/15 03:39:28;;;;;;;27.60;14.55;;;5.30;99.90;;;;;;4992459;28;20133;-71
2021/11/15 03:41:55;;;;;;;28.08;15.00;;;5.30;99.90;;;;;;4992236;28;20084;-72
2021/11/15 03:44:27;;;;;;;30.10;14.23;;;5.30;99.90;;;;;;4991907;28;20042;-72
2021/11/15 03:46:58;;;;;;;25.33;13.18;;;5.30;99.90;;;;;;4976823;28;20413;-72
2021/11/15 03:49:25;;;;;;;25.63;13.63;;;5.30;99.90;;;;;;4991343;28;20137;-71
2021/11/15 03:51:52;;;;;;;32.10;15.40;;;5.30;99.90;;;;;;4992847;28;20081;-73
2021/11/15 03:54:24;;;;;;;36.58;15.63;;;5.20;99.90;;;;;;4990542;28;20038;-72
2021/11/15 03:56:50;;;;;;;27.90;14.15;;;5.30;99.90;;;;;;4991034;28;20073;-71
2021/11/15 03:59:22;;;;;;;27.95;15.10;;;5.30;99.90;;;;;;4992861;28;20093;-71
2021/11/15 04:01:50;;;;;;;32.03;16.50;;;5.30;99.90;;;;;;4991762;28;20046;-72
2021/11/15 04:04:27;;;;;;;29.83;14.40;;;5.40;99.90;;;;;;4992768;28;20149;-71
2021/11/15 04:06:54;;;;;;;33.58;15.13;;;5.30;99.90;;;;;;4993016;28;20065;-71
2021/11/15 04:09:26;;;;;;;32.88;14.57;;;5.40;99.90;;;;;;4992865;28;20532;-71
2021/11/15 04:11:58;;;;;;;27.60;15.57;;;5.30;99.90;;;;;;4991492;28;20137;-73
2021/11/15 04:14:30;;;;;;;27.92;14.63;;;5.30;99.90;;;;;;4991451;28;20042;-72
2021/11/15 04:17:02;;;;;;;27.25;14.65;;;5.30;99.90;;;;;;4991622;28;20077;-73
2021/11/15 04:19:28;;;;;;;29.20;14.68;;;5.20;99.90;;;;;;4991621;28;20149;-71
2021/11/15 04:22:00;;;;;;;32.50;15.77;;;5.20;99.90;;;;;;4989278;28;20080;-72
2021/11/15 04:24:27;;;;;;;29.75;15.75;;;5.20;99.90;;;;;;4981866;28;20554;-72
2021/11/15 04:26:59;;;;;;;36.30;17.15;;;5.30;99.90;;;;;;4990648;28;20113;-72
2021/11/15 04:29:31;;;;;;;32.42;14.85;;;5.30;99.90;;;;;;4975098;28;20048;-72
2021/11/15 04:32:05;;;;;;;31.70;14.48;;;5.30;99.90;;;;;;4975679;28;20452;-72
2021/11/15 04:34:37;;;;;;;27.70;14.23;;;5.30;99.90;;;;;;4992386;28;20129;-72
2021/11/15 04:37:05;;;;;;;28.55;15.27;;;5.30;99.90;;;;;;4991484;28;20053;-72
2021/11/15 04:39:32;;;;;;;30.92;15.90;;;5.40;99.90;;;;;;4992564;28;20061;-72
2021/11/15 04:42:04;;;;;;;33.00;15.52;;;5.40;99.90;;;;;;4991828;28;20140;-72
2021/11/15 04:44:36;;;;;;;30.48;14.90;;;5.30;99.90;;;;;;4991868;28;20073;-72
2021/11/15 04:47:08;;;;;;;29.65;15.40;;;5.30;99.90;;;;;;4992403;28;20108;-71
2021/11/15 04:49:40;;;;;;;30.98;16.73;;;5.30;99.90;;;;;;4975471;28;20516;-72
2021/11/15 04:52:12;;;;;;;32.40;16.17;;;5.20;99.90;;;;;;4990220;28;20133;-72
2021/11/15 04:54:43;;;;;;;33.50;16.33;;;5.20;99.90;;;;;;4974814;28;20500;-72
2021/11/15 04:57:10;;;;;;;29.60;15.23;;;5.20;99.90;;;;;;4991774;28;20489;-72
2021/11/15 04:59:42;;;;;;;27.90;15.93;;;5.10;99.90;;;;;;4990044;28;20073;-72
2021/11/15 05:02:14;;;;;;;30.52;15.52;;;5.10;99.90;;;;;;4990968;28;20038;-72
2021/11/15 05:04:46;;;;;;;31.10;15.40;;;5.10;99.90;;;;;;4991062;28;20142;-72
2021/11/15 05:07:13;;;;;;;27.13;13.40;;;5.10;99.90;;;;;;4990044;28;20166;-73
2021/11/15 05:09:45;;;;;;;27.25;13.52;;;5.00;99.90;;;;;;4990062;28;20049;-71
2021/11/15 05:12:16;;;;;;;27.80;13.85;;;5.00;99.90;;;;;;4990179;28;20061;-73
2021/11/15 05:14:48;;;;;;;27.63;15.27;;;5.00;99.90;;;;;;4990886;28;20039;-73
2021/11/15 05:17:20;;;;;;;27.90;14.57;;;5.00;99.90;;;;;;4986684;28;20152;-72
2021/11/15 05:19:52;;;;;;;28.80;16.15;;;5.00;99.90;;;;;;4991178;28;20060;-71
2021/11/15 05:22:24;;;;;;;28.67;13.55;;;5.00;99.90;;;;;;4985472;28;20042;-73
2021/11/15 05:24:56;;;;;;;25.83;13.25;;;5.00;99.90;;;;;;4990096;28;20041;-72
2021/11/15 05:27:28;;;;;;;26.40;15.05;;;5.00;99.90;;;;;;4990746;28;20401;-72
2021/11/15 05:29:59;;;;;;;27.98;13.73;;;4.90;99.90;;;;;;4989740;28;20125;-72
2021/11/15 05:32:31;;;;;;;28.77;14.63;;;4.90;99.90;;;;;;4991398;28;20079;-72
2021/11/15 05:35:04;;;;;;;28.20;12.77;;;5.00;99.90;;;;;;4990167;28;20145;-72
2021/11/15 05:37:36;;;;;;;27.57;14.07;;;4.90;99.90;;;;;;4991488;28;20092;-72
2021/11/15 05:40:09;;;;;;;25.70;12.88;;;4.90;99.90;;;;;;4990269;28;20827;-72
2021/11/15 05:42:41;;;;;;;26.77;13.27;;;4.90;99.90;;;;;;4988959;28;20049;-72
2021/11/15 05:45:13;;;;;;;22.17;12.05;;;4.90;99.90;;;;;;4989445;28;20070;-72
2021/11/15 05:47:43;;;;;;;24.80;13.27;;;4.80;99.90;;;;;;4987647;28;20047;-72
2021/11/15 05:50:16;;;;;;;26.23;12.68;;;4.90;99.90;;;;;;4989253;28;20505;-72
2021/11/15 05:52:48;;;;;;;;;;;4.90;99.90;;;;;;4989445;28;20138;-71
2021/11/15 05:55:22;;;;;;;26.65;12.30;;;4.90;99.90;;;;;;4989837;28;20376;-72
2021/11/15 05:57:55;;;;;;;26.42;13.90;;;4.90;99.90;;;;;;4990658;28;20126;-72
2021/11/15 06:00:28;;;;;;;31.55;13.35;;;4.90;99.90;;;;;;4989397;28;20137;-72
2021/11/15 06:02:56;;;;;;;28.50;14.05;;;4.80;99.90;;;;;;4990245;28;20077;-71
2021/11/15 06:05:29;;;;;;;30.92;14.73;;;4.80;99.90;;;;;;4985333;28;20394;-71
2021/11/15 06:08:01;;;;;;;25.93;13.00;;;4.80;99.90;;;;;;4975421;28;20517;-72
2021/11/15 06:10:33;;;;;;;28.48;14.48;;;4.80;99.90;;;;;;4980921;28;20332;-72
2021/11/15 06:13:06;;;;;;;31.77;16.23;;;4.90;99.90;;;;;;4987243;28;20113;-72
2021/11/15 06:15:38;;;;;;;30.38;15.30;;;4.90;99.90;;;;;;4973956;28;20710;-72
2021/11/15 06:18:05;;;;;;;26.48;14.38;;;4.90;99.90;;;;;;4973777;28;20445;-72
2021/11/15 06:20:37;;;;;;;25.95;14.75;;;4.90;99.90;;;;;;4994171;28;20042;-72
2021/11/15 06:23:08;;;;;;;33.85;18.35;;;4.90;99.90;;;;;;4992983;28;20129;-72
2021/11/15 06:25:35;;;;;;;31.67;17.13;;;4.90;99.90;;;;;;4992650;28;20076;-72
2021/11/15 06:28:07;;;;;;;32.90;17.30;;;4.90;99.90;;;;;;4993334;28;20133;-72
2021/11/15 06:30:40;;;;;;;31.73;16.98;;;4.90;99.90;;;;;;4977589;28;20057;-72
2021/11/15 06:33:06;;;;;;;36.40;15.77;;;4.90;99.90;;;;;;4993811;28;20042;-72
2021/11/15 06:35:38;;;;;;;32.03;17.73;;;4.90;99.90;;;;;;4992476;28;20117;-72
2021/11/15 06:38:10;;;;;;;36.50;19.48;;;4.90;99.90;;;;;;4975161;28;20125;-72
2021/11/15 06:40:39;;;;;;;41.28;22.05;;;4.90;99.90;;;;;;4992460;28;20497;-72
2021/11/15 06:43:07;;;;;;;32.78;15.95;;;4.90;99.90;;;;;;4992850;28;20061;-72
2021/11/15 06:45:34;;;;;;;28.55;15.05;;;4.90;99.90;;;;;;4993822;28;20062;-72
2021/11/15 06:48:06;;;;;;;33.58;15.65;;;4.90;99.90;;;;;;4986645;28;20026;-72
2021/11/15 06:50:35;;;;;;;28.67;18.42;;;4.90;99.90;;;;;;4989645;28;20089;-72
2021/11/15 06:53:07;;;;;;;35.00;20.83;;;4.90;99.90;;;;;;4991487;28;20054;-72
2021/11/15 06:55:34;;;;;;;34.97;20.17;;;4.90;99.90;;;;;;4993954;28;20486;-72
2021/11/15 06:58:06;;;;;;;26.63;15.82;;;4.90;99.90;;;;;;4987228;28;20073;-72
2021/11/15 07:00:38;;;;;;;33.13;15.43;;;4.90;99.90;;;;;;4992312;28;20050;-72
2021/11/15 07:03:05;;;;;;;30.27;16.23;;;4.90;99.90;;;;;;4987379;28;20133;-71
2021/11/15 07:05:32;;;;;;;27.30;13.68;;;4.90;99.90;;;;;;4996012;28;20038;-74
2021/11/15 07:07:59;;;;;;;29.27;14.85;;;4.90;99.90;;;;;;4992160;28;20102;-72
2021/11/15 07:10:34;;;;;;;33.15;16.40;;;5.00;99.90;;;;;;4991691;28;20508;-72
2021/11/15 07:13:01;;;;;;;32.90;16.75;;;5.00;99.90;;;;;;4988469;28;20070;-72
2021/11/15 07:15:33;;;;;;;33.88;16.20;;;5.00;99.90;;;;;;4991133;28;20044;-72
2021/11/15 07:18:05;;;;;;;34.97;15.70;;;4.90;99.90;;;;;;4986885;28;20062;-75
2021/11/15 07:20:32;;;;;;;30.90;15.77;;;4.90;99.90;;;;;;4991166;28;20580;-72
2021/11/15 07:23:04;;;;;;;27.85;14.75;;;4.90;99.90;;;;;;4992187;28;20050;-72
2021/11/15 07:25:37;;;;;;;27.00;12.85;;;4.90;99.90;;;;;;4975690;28;20141;-72
2021/11/15 07:28:08;;;;;;;23.90;12.40;;;4.90;99.90;;;;;;4988037;28;20125;-72
2021/11/15 07:30:35;;;;;;;31.27;13.93;;;4.90;99.90;;;;;;4991388;28;20050;-71
2021/11/15 07:33:02;;;;;;;26.27;12.68;;;4.90;99.90;;;;;;4992482;28;20181;-73
2021/11/15 07:35:35;;;;;;;29.40;13.45;;;4.90;99.90;;;;;;4993373;28;20125;-71
2021/11/15 07:38:08;;;;;;;22.08;13.10;;;4.90;99.90;;;;;;4976510;28;20046;-72
2021/11/15 07:40:40;;;;;;;29.40;13.52;;;4.90;99.90;;;;;;4982235;28;20423;-71
2021/11/15 07:43:12;;;;;;;26.50;12.90;;;4.90;99.90;;;;;;4996436;28;20078;-72
2021/11/15 07:45:45;;;;;;;27.45;12.45;;;4.90;99.90;;;;;;4991102;28;20552;-71
2021/11/15 07:48:12;;;;;;;30.52;15.32;;;4.90;99.90;;;;;;4991606;28;20073;-72
2021/11/15 07:50:46;;;;;;;25.67;14.02;;;4.90;99.90;;;;;;4991673;28;20078;-72
2021/11/15 07:53:14;;;;;;;27.70;13.93;;;4.90;99.90;;;;;;4987828;28;20047;-73
2021/11/15 07:55:46;;;;;;;25.43;13.57;;;4.90;99.90;;;;;;4999572;28;20457;-72
2021/11/15 07:58:15;;;;;;;28.52;13.82;;;4.90;99.90;;;;;;4998814;28;20042;-72
2021/11/15 08:00:44;;;;;;;26.52;12.40;;;4.90;99.90;;;;;;4991660;28;20042;-73
2021/11/15 08:03:16;;;;;;;27.73;13.70;;;4.90;99.90;;;;;;4972498;28;20498;-73
2021/11/15 08:05:48;;;;;;;26.60;12.35;;;4.90;99.90;;;;;;4974451;28;20053;-74
2021/11/15 08:08:20;;;;;;;26.35;12.93;;;4.90;99.90;;;;;;4983773;28;20035;-72
2021/11/15 08:10:49;;;;;;;27.67;13.15;;;4.90;99.90;;;;;;4991188;28;20076;-72
2021/11/15 08:13:21;;;;;;;26.95;13.15;;;5.00;99.90;;;;;;5001690;28;20049;-72
2021/11/15 08:15:53;;;;;;;29.10;14.80;;;5.00;99.90;;;;;;4999617;28;20038;-72
2021/11/15 08:18:24;;;;;;;26.08;14.30;;;5.00;99.90;;;;;;4991317;28;20122;-73
2021/11/15 08:20:52;;;;;;;31.35;14.38;;;5.00;99.90;;;;;;4990180;28;20481;-72
2021/11/15 08:23:23;;;;;;;26.08;15.65;;;5.00;99.90;;;;;;5005001;28;20088;-72
2021/11/15 08:26:26;;;;;;;27.95;14.00;;;5.00;99.90;;;;;;4996129;28;20133;-72
2021/11/15 08:29:00;;;;;;;24.67;12.43;;;5.00;99.90;;;;;;4991920;28;20124;-73
2021/11/15 08:31:32;;;;;;;28.13;13.90;;;5.00;99.90;;;;;;5003296;28;20040;-73
2021/11/15 08:34:04;;;;;;;26.70;13.85;;;5.00;99.90;;;;;;4999727;28;20042;-73
2021/11/15 08:36:31;;;;;;;22.75;13.27;;;5.00;99.90;;;;;;4991990;28;20548;-72
2021/11/15 08:39:10;;;;;;;28.60;13.73;;;5.00;99.90;;;;;;4994157;28;20069;-72
2021/11/15 08:41:46;;;;;;;33.88;15.93;;;5.00;99.90;;;;;;4996106;28;20145;-72
2021/11/15 08:44:20;;;;;;;28.50;14.02;;;5.00;99.90;;;;;;4983873;28;20133;-72
2021/11/15 08:46:54;;;;;;;32.40;14.77;;;5.00;99.90;;;;;;5010496;28;20045;-72
2021/11/15 08:49:25;;;;;;;28.98;14.50;;;5.00;99.90;;;;;;5004568;28;20047;-71
2021/11/15 08:51:53;;;;;;;27.95;13.20;;;5.00;99.90;;;;;;4975290;28;20101;-72
2021/11/15 08:54:27;;;;;;;28.15;13.95;;;5.00;99.90;;;;;;4989427;28;20416;-71
2021/11/15 08:57:02;;;;;;;31.08;15.38;;;5.00;99.90;;;;;;4990673;28;20043;-72
2021/11/15 08:59:34;;;;;;;27.88;15.43;;;5.00;99.90;;;;;;4991806;28;20125;-71
2021/11/15 09:02:08;;;;;;;33.30;15.70;;;5.00;99.90;;;;;;4991009;28;20477;-70
2021/11/15 09:04:37;;;;;;;33.30;15.65;;;5.00;99.90;;;;;;4990222;28;20085;-71
2021/11/15 09:07:09;;;;;;;30.20;16.08;;;5.00;99.90;;;;;;4998644;28;20048;-71
2021/11/15 09:09:36;;;;;;;37.00;16.55;;;5.00;99.90;;;;;;5007172;28;20045;-71
2021/11/15 09:12:09;;;;;;;31.73;16.73;;;5.00;99.90;;;;;;5003586;28;20066;-71
2021/11/15 09:14:41;;;;;;;36.88;18.63;;;5.10;99.90;;;;;;4997735;28;20328;-71
2021/11/15 09:17:08;;;;;;;36.25;20.08;;;5.10;99.90;;;;;;4999096;28;20160;-72
2021/11/15 09:19:36;;;;;;;40.90;21.95;;;5.10;99.90;;;;;;5002730;28;20046;-72
2021/11/15 09:22:03;;;;;;;36.65;17.92;;;5.00;99.90;;;;;;5009637;28;20065;-71
2021/11/15 09:24:35;;;;;;;36.75;17.17;;;5.00;99.90;;;;;;4989933;28;20134;-73
2021/11/15 09:27:04;;;;;;;32.92;16.30;;;5.00;99.90;;;;;;4993712;28;20072;-72
2021/11/15 09:29:30;;;;;;;30.98;15.73;;;5.00;99.90;;;;;;4998216;28;20081;-71
2021/11/15 09:32:03;;;;;;;31.90;16.10;;;5.00;99.90;;;;;;4992465;28;20101;-72
2021/11/15 09:34:40;;;;;;;33.63;16.30;;;5.00;99.90;;;;;;4994242;28;20180;-72
2021/11/15 09:37:13;;;;;;;29.42;15.52;;;5.00;99.90;;;;;;4989840;28;20035;-72
2021/11/15 09:39:43;;;;;;;30.30;14.68;;;5.00;99.90;;;;;;4970798;28;20417;-72
2021/11/15 09:42:16;;;;;;;35.72;16.00;;;5.00;99.90;;;;;;4974042;28;20046;-72
2021/11/15 09:44:45;;;;;;;29.83;15.02;;;5.00;99.90;;;;;;4991579;28;20141;-72
2021/11/15 09:47:17;;;;;;;31.92;14.20;;;5.00;99.90;;;;;;4998190;28;20117;-72
2021/11/15 09:49:50;;;;;;;31.23;15.48;;;5.00;99.90;;;;;;4995757;28;20117;-71
2021/11/15 09:52:17;;;;;;;28.55;16.92;;;5.10;99.90;;;;;;4989793;28;20458;-72
2021/11/15 09:54:50;;;;;;;32.45;16.08;;;5.10;99.90;;;;;;4983665;28;20401;-72
2021/11/15 09:57:18;;;;;;;33.75;16.08;;;5.10;99.90;;;;;;5004863;28;20144;-73
2021/11/15 09:59:49;;;;;;;31.88;16.08;;;5.10;99.90;;;;;;5002833;28;20479;-72
2021/11/15 10:02:21;;;;;;;30.65;16.25;;;5.10;99.90;;;;;;4999824;28;20726;-72
2021/11/15 10:04:48;;;;;;;36.58;17.30;;;5.10;99.90;;;;;;4997288;28;20042;-72
2021/11/15 10:07:39;;;;;;;32.90;18.60;;;5.20;99.90;;;;;;4993052;28;20408;-73
2021/11/15 10:10:30;;;;;;;35.88;16.65;;;5.10;99.90;;;;;;4993656;28;20472;-72
2021/11/15 10:13:03;;;;;;;37.63;18.73;;;5.20;99.90;;;;;;4994407;28;20057;-72
2021/11/15 10:15:54;;;;;;;;;;;5.20;99.90;;;;;;4992658;28;20046;-71
2021/11/15 10:18:31;;;;;;;29.63;15.25;;;5.20;99.90;;;;;;4976529;28;20016;-73
2021/11/15 10:21:07;;;;;;;33.40;16.88;;;5.20;99.90;;;;;;4991794;28;20075;-73
2021/11/15 10:23:36;;;;;;;31.98;16.52;;;5.20;99.90;;;;;;4991243;28;20149;-73
2021/11/15 10:26:14;;;;;;;35.55;17.70;;;5.20;99.90;;;;;;4989290;28;20509;-73
2021/11/15 10:28:41;;;;;;;31.38;15.90;;;5.20;99.90;;;;;;4989087;28;20129;-73
2021/11/15 10:31:30;;;;;;;33.90;17.13;;;5.20;99.90;;;;;;4994469;28;20058;-72
2021/11/15 10:34:03;;;;;;;35.33;16.25;;;5.20;99.90;;;;;;5006491;28;20061;-73
2021/11/15 10:36:46;;;;;;;32.83;17.70;;;5.20;99.90;;;;;;4978800;28;20117;-73
2021/11/15 10:39:14;;;;;;;28.98;16.42;;;5.20;99.90;;;;;;4993475;28;20081;-72
2021/11/15 10:42:07;;;;;;;29.52;14.90;;;5.30;99.90;;;;;;4977843;28;20528;-72
2021/11/15 10:44:37;;;;;;;30.80;15.07;;;5.30;99.90;;;;;;5005828;28;20461;-73
2021/11/15 10:47:09;;;;;;;28.50;15.15;;;5.30;99.90;;;;;;4979620;28;20069;-73
2021/11/15 10:49:42;;;;;;;29.17;14.60;;;5.30;99.90;;;;;;4977415;28;20088;-73
2021/11/15 10:52:16;;;;;;;30.35;16.48;;;5.40;99.90;;;;;;4997508;28;20073;-73
2021/11/15 10:57:51;;;;;;;32.10;14.70;;;5.40;99.90;;;;;;4992712;28;20132;-73
2021/11/15 11:00:32;;;;;;;28.15;14.13;;;5.40;99.90;;;;;;4978297;28;20132;-73
2021/11/15 11:03:17;;;;;;;29.58;16.38;;;5.40;99.90;;;;;;4979564;28;20046;-73
2021/11/15 11:05:54;;;;;;;34.38;16.08;;;5.30;99.90;;;;;;4980245;28;20487;-72
2021/11/15 11:08:28;;;;;;;28.10;14.52;;;5.30;99.90;;;;;;4993325;28;20066;-73
2021/11/15 11:11:06;;;;;;;30.75;15.73;;;5.30;99.90;;;;;;4987537;28;20046;-73
2021/11/15 11:14:07;;;;;;;29.55;15.77;;;5.40;99.90;;;;;;4987974;28;20557;-73
2021/11/15 11:16:50;;;;;;;32.50;16.35;;;5.30;99.90;;;;;;4995275;28;20082;-73
2021/11/15 11:19:43;;;;;;;32.42;16.38;;;5.40;99.90;;;;;;4998524;28;20646;-73
2021/11/15 11:27:36;;;;;;;32.53;16.02;;;5.40;99.90;;;;;;4999847;28;20125;-73
2021/11/15 11:30:09;;;;;;;34.95;16.63;;;5.40;99.90;;;;;;4991874;28;20042;-73
2021/11/15 11:32:40;;;;;;;34.55;18.20;;;5.40;99.90;;;;;;4992977;28;20142;-73
2021/11/15 11:35:08;;;;;;;35.10;18.13;;;5.40;99.90;;;;;;4992670;28;20545;-73
2021/11/15 11:37:34;;;;;;;31.15;15.93;;;5.40;99.90;;;;;;4993426;28;20470;-73
2021/11/15 11:40:07;;;;;;;28.30;15.48;;;5.40;99.90;;;;;;4987556;28;20126;-73
2021/11/15 11:42:40;;;;;;;;;;;5.40;99.90;;;;;;4984632;28;20047;-73
2021/11/15 11:45:12;;;;;;;31.15;15.75;;;5.40;99.90;;;;;;4989063;28;20017;-72
2021/11/15 11:47:44;;;;;;;35.03;16.73;;;5.30;99.90;;;;;;5003266;28;20039;-72
2021/11/15 11:50:16;;;;;;;32.45;16.08;;;5.30;99.90;;;;;;4992319;28;20122;-73
2021/11/15 11:53:06;;;;;;;36.50;17.15;;;5.30;99.90;;;;;;4976612;28;20132;-73
2021/11/15 11:55:35;;;;;;;32.53;15.80;;;5.40;99.90;;;;;;4990353;28;20133;-72
2021/11/15 11:58:22;;;;;;;30.00;15.63;;;5.40;99.90;;;;;;4978759;28;20034;-73
2021/11/15 12:00:57;;;;;;;32.33;15.63;;;5.40;99.90;;;;;;4991164;28;20042;-73
2021/11/15 12:03:30;;;;;;;31.73;15.40;;;5.40;99.90;;;;;;4999441;28;20034;-72
2021/11/15 12:06:02;;;;;;;29.17;16.27;;;5.40;99.90;;;;;;4974470;28;20142;-72
2021/11/15 12:08:51;;;;;;;31.92;15.27;;;5.40;99.90;;;;;;4991980;28;20462;-72
2021/11/15 12:11:31;;;;;;;32.85;16.50;;;5.40;99.90;;;;;;4972794;28;20078;-72
2021/11/15 12:14:06;;;;;;;30.73;15.60;;;5.40;99.90;;;;;;4991216;28;20116;-73
2021/11/15 12:17:06;;;;;;;31.92;15.32;;;5.40;99.90;;;;;;5000884;28;20070;-72
2021/11/15 12:19:57;;;;;;;32.92;16.65;;;5.40;99.90;;;;;;4990724;28;20138;-71
2021/11/15 12:22:45;;;;;;;29.92;16.10;;;5.40;99.90;;;;;;4990663;28;20066;-72
2021/11/15 12:25:20;;;;;;;31.40;15.85;;;5.40;99.90;;;;;;4990348;28;20084;-72
2021/11/15 12:28:00;;;;;;;32.28;15.93;;;5.40;99.90;;;;;;4990111;28;20041;-72
2021/11/15 12:30:35;;;;;;;34.15;16.83;;;5.40;99.90;;;;;;4988957;28;20146;-73
2021/11/15 12:33:07;;;;;;;34.53;17.77;;;5.40;99.90;;;;;;4974485;28;20130;-72
2021/11/15 12:35:57;;;;;;;34.88;17.27;;;5.40;99.90;;;;;;4987140;28;20121;-72
2021/11/15 12:38:46;;;;;;;34.92;16.20;;;5.40;99.90;;;;;;4970440;28;20058;-72
2021/11/15 12:41:24;;;;;;;32.67;17.23;;;5.30;99.90;;;;;;4986401;28;20042;-72
2021/11/15 12:44:05;;;;;;;29.58;16.58;;;5.30;99.90;;;;;;4981460;28;20117;-73
2021/11/15 12:47:00;;;;;;;39.63;17.42;;;5.30;99.90;;;;;;4981229;28;20560;-73
2021/11/15 12:49:54;;;;;;;41.17;18.88;;;5.30;99.90;;;;;;4997697;28;20038;-73
2021/11/15 12:52:28;;;;;;;37.50;18.88;;;5.30;99.90;;;;;;4972590;28;20470;-72
2021/11/15 12:55:05;;;;;;;35.20;17.42;;;5.30;99.90;;;;;;4974884;28;20065;-73
2021/11/15 12:57:40;;;;;;;39.08;19.02;;;5.30;99.90;;;;;;4985345;28;20074;-73
2021/11/15 13:00:26;;;;;;;47.35;23.13;;;5.30;99.90;;;;;;4972172;28;20048;-72
2021/11/15 13:03:06;;;;;;;33.95;17.75;;;5.30;99.90;;;;;;5002666;28;20393;-73
2021/11/15 13:05:42;;;;;;;39.08;21.45;;;5.30;99.90;;;;;;4996661;28;20129;-73
2021/11/15 13:08:14;;;;;;;40.10;18.27;;;5.30;99.90;;;;;;4993790;28;20061;-73
2021/11/15 13:10:45;;;;;;;39.42;19.27;;;5.30;99.90;;;;;;4993215;28;20144;-73
2021/11/15 13:13:17;;;;;;;35.80;17.27;;;5.30;99.90;;;;;;5002233;28;20037;-73